Main page
METAR-TAF:

METAR-TAF

Airports :

Heimdal, Norway

Oil platform

latitude: 59-34-12N, longitude: 2-13-48E, elevation: 10 m

Current weather observation

The report was made 22 minutes ago, at 01:50 UTC
Wind 5 kt from the Southwest
Temperature 5°C
Humidity 70%
Pressure 1014 hPa
Visibility 10 km or more

METAR: ENHM 170150Z AUTO 23005KT 9999NDV FEW049/// 05/00 Q1014 W08/S4

Time: 03:12 (02:12 UTC)

Forecast

The report was made 12 hours and 12 minutes ago, at 14:00 UTC
Forecast valid from 16 at 15 UTC to 16 at 18 UTC
Wind 18 kt from the North
Visibility 10 km or more
Few clouds at a height of 1500 ft
Scattered clouds at a height of 3000 ft
Temporary
from 16 at 15 UTC to 16 at 18 UTC
Wind 28 kt from the North/Northwest
Visibility: 4000 m
Broken clouds at a height of 1200 ft, Cumulonimbus.
rain showers, snow, small hail or snow pellets

TAF: ENHM 161400Z 1615/1618 35018KT 9999 FEW015 SCT030 TEMPO 1615/1618 34028KT 4000 SHRASNGS BKN012CB

Weather observations and forecasts of more than 4000 airports (METAR and TAF reports).

The available stations are represented by yellow and red dots on the map.

Hover mouse over dot to see the name of the station.

Then click to see weather observations and forecasts.

To change the map : click on the green buttons with a black cross to zoom in, on the green button with a dash to zoom out, or on the green arrows for adjacent maps.


METAR-TAF: